createdAt,value
2019-03-06T00:02:49.892Z,12.28
2019-03-06T00:07:58.831Z,13.64
2019-03-06T00:13:08.004Z,11.57
2019-03-06T00:18:16.961Z,12.74
2019-03-06T00:23:25.984Z,13.29
2019-03-06T00:28:34.918Z,11.77
2019-03-06T00:33:43.913Z,12.82
2019-03-06T00:38:52.845Z,19.22
2019-03-06T00:44:01.850Z,14.62
2019-03-06T00:49:10.790Z,13.98
2019-03-06T00:54:19.749Z,17.60
2019-03-06T00:59:28.775Z,13.12
2019-03-06T01:04:37.756Z,13.96
2019-03-06T01:09:45.246Z,16.18
2019-03-06T01:14:54.251Z,14.64
2019-03-06T01:20:03.287Z,23.33
2019-03-06T01:25:12.274Z,21.69
2019-03-06T01:30:21.287Z,14.57
2019-03-06T01:35:30.278Z,24.99
2019-03-06T01:40:39.670Z,15.00
2019-03-06T01:45:48.669Z,16.62
2019-03-06T01:50:57.610Z,15.95
2019-03-06T01:56:06.598Z,15.48
2019-03-06T02:01:15.564Z,14.37
2019-03-06T02:06:24.547Z,21.56
2019-03-06T02:11:33.575Z,15.75
2019-03-06T02:16:42.557Z,16.50
2019-03-06T02:21:51.563Z,14.62
2019-03-06T02:27:00.630Z,15.26
2019-03-06T02:32:09.643Z,17.82
2019-03-06T02:37:18.694Z,14.66
2019-03-06T02:42:27.687Z,20.09
2019-03-06T02:47:36.758Z,15.50
2019-03-06T02:52:45.703Z,11.44
2019-03-06T02:57:54.721Z,14.98
2019-03-06T03:03:03.728Z,10.70
2019-03-06T03:08:12.799Z,19.30
2019-03-06T03:13:21.730Z,10.81
2019-03-06T03:18:30.731Z,11.40
2019-03-06T03:23:39.743Z,11.16
2019-03-06T03:28:48.735Z,13.34
2019-03-06T03:33:57.679Z,9.77
2019-03-06T03:39:06.693Z,12.44
2019-03-06T03:44:15.724Z,13.79
2019-03-06T03:49:24.718Z,12.51
2019-03-06T03:54:33.711Z,11.39
2019-03-06T03:59:42.706Z,12.04
2019-03-06T04:04:51.745Z,12.54
2019-03-06T04:10:00.724Z,11.34
2019-03-06T04:15:09.814Z,13.94
2019-03-06T04:20:18.815Z,10.33
2019-03-06T04:25:27.863Z,15.55
2019-03-06T04:30:36.854Z,17.63
2019-03-06T04:35:45.910Z,9.98
2019-03-06T04:40:54.908Z,10.09
2019-03-06T04:46:03.918Z,18.31
2019-03-06T04:51:13.229Z,7.88
2019-03-06T04:56:21.894Z,13.99
2019-03-06T05:01:30.886Z,9.45
2019-03-06T05:06:39.938Z,14.80
2019-03-06T05:11:48.882Z,14.23
2019-03-06T05:16:57.906Z,12.57
2019-03-06T05:22:06.852Z,7.56
2019-03-06T05:27:15.861Z,7.48
2019-03-06T05:32:24.784Z,9.14
2019-03-06T05:37:33.798Z,7.42
2019-03-06T05:42:42.778Z,12.24
2019-03-06T05:47:51.770Z,7.16
2019-03-06T05:53:00.730Z,7.82
2019-03-06T05:58:09.782Z,9.26
2019-03-06T06:03:18.721Z,6.90
2019-03-06T06:08:27.778Z,5.47
2019-03-06T06:13:36.730Z,7.19
2019-03-06T06:18:45.799Z,4.79
2019-03-06T06:23:54.763Z,4.93
2019-03-06T06:29:03.722Z,5.25
2019-03-06T06:34:12.678Z,7.43
2019-03-06T06:39:21.743Z,5.66
2019-03-06T06:44:30.659Z,9.37
2019-03-06T06:49:39.638Z,3.94
2019-03-06T06:54:48.558Z,5.27
2019-03-06T06:59:57.515Z,7.36
2019-03-06T07:05:06.458Z,6.53
2019-03-06T07:10:15.444Z,6.19
2019-03-06T07:15:24.610Z,6.48
2019-03-06T07:20:33.486Z,9.04
2019-03-06T07:25:42.442Z,4.32
2019-03-06T07:30:51.382Z,6.29
2019-03-06T07:36:00.345Z,8.36
2019-03-06T07:41:09.291Z,6.05
2019-03-06T07:46:18.635Z,3.39
2019-03-06T07:51:27.574Z,5.67
2019-03-06T07:56:36.595Z,5.27
2019-03-06T08:01:45.535Z,4.17
2019-03-06T08:06:54.737Z,5.26
2019-03-06T08:12:03.681Z,5.06
2019-03-06T08:17:12.621Z,6.88
2019-03-06T08:22:21.579Z,4.70
2019-03-06T08:27:30.542Z,4.48
2019-03-06T08:32:39.486Z,6.32
2019-03-06T08:37:48.410Z,5.04
2019-03-06T08:42:57.431Z,7.39
2019-03-06T08:48:06.390Z,6.08
2019-03-06T08:53:15.368Z,4.44
2019-03-06T08:58:24.314Z,6.53
2019-03-06T09:03:33.278Z,5.40
2019-03-06T09:08:42.223Z,4.38
2019-03-06T09:13:51.253Z,6.66
2019-03-06T09:19:00.232Z,4.68
2019-03-06T09:24:09.263Z,6.43
2019-03-06T09:29:18.242Z,5.77
2019-03-06T09:34:28.273Z,7.27
2019-03-06T09:39:35.721Z,9.19
2019-03-06T09:44:44.732Z,5.64
2019-03-06T09:49:53.714Z,6.98
2019-03-06T09:55:02.774Z,5.55
2019-03-06T10:00:11.760Z,6.70
2019-03-06T10:05:20.758Z,9.51
2019-03-06T10:10:29.748Z,8.47
2019-03-06T10:15:39.639Z,4.93
2019-03-06T10:20:48.621Z,6.68
2019-03-06T10:25:57.605Z,6.84
2019-03-06T10:31:06.608Z,6.98
2019-03-06T10:36:15.891Z,7.15
2019-03-06T10:41:24.866Z,5.66
2019-03-06T10:46:33.866Z,7.36
2019-03-06T10:51:42.902Z,4.44
2019-03-06T10:56:51.946Z,5.53
2019-03-06T11:02:00.968Z,6.80
2019-03-06T11:07:10.022Z,8.30
2019-03-06T11:12:19.060Z,7.27
2019-03-06T11:17:28.055Z,5.50
2019-03-06T11:22:37.034Z,4.76
2019-03-06T11:27:46.102Z,6.54
2019-03-06T11:32:55.083Z,4.72
2019-03-06T11:38:04.094Z,7.34
2019-03-06T11:43:13.098Z,6.36
2019-03-06T11:48:22.115Z,6.05
2019-03-06T11:53:32.921Z,8.35
2019-03-06T11:58:39.735Z,5.50
2019-03-06T12:03:48.674Z,5.00
2019-03-06T12:08:57.734Z,7.22
2019-03-06T12:14:06.739Z,6.11
2019-03-06T12:19:15.738Z,7.37
2019-03-06T12:24:24.678Z,4.92
2019-03-06T12:29:33.665Z,5.93
2019-03-06T12:34:42.870Z,6.64
2019-03-06T12:39:51.866Z,7.81
2019-03-06T12:45:00.803Z,5.79
2019-03-06T12:50:09.807Z,5.00
2019-03-06T12:55:18.881Z,5.68
2019-03-06T13:00:27.861Z,5.47
2019-03-06T13:05:36.862Z,8.83
2019-03-06T13:10:45.859Z,5.13
2019-03-06T13:15:54.906Z,5.44
2019-03-06T13:21:03.901Z,5.96
2019-03-06T13:26:12.926Z,6.46
2019-03-06T13:31:21.909Z,5.51
2019-03-06T13:36:30.954Z,6.45
2019-03-06T13:41:39.942Z,7.10
2019-03-06T13:46:49.006Z,9.06
2019-03-06T13:51:58.001Z,4.64
2019-03-06T13:57:07.027Z,5.94
2019-03-06T14:02:16.026Z,5.95
2019-03-06T14:07:25.095Z,5.47
2019-03-06T14:12:34.086Z,5.22
2019-03-06T14:17:43.102Z,7.15
2019-03-06T14:22:52.102Z,5.10
2019-03-06T14:28:01.138Z,6.60
2019-03-06T14:33:10.122Z,6.07
2019-03-06T14:38:19.139Z,4.50
2019-03-06T14:43:28.171Z,5.13
2019-03-06T14:48:37.159Z,7.73
2019-03-06T14:53:46.178Z,4.79
2019-03-06T14:58:55.098Z,6.77
2019-03-06T15:04:04.169Z,7.98
2019-03-06T15:09:13.139Z,7.27
2019-03-06T15:14:22.160Z,7.37
2019-03-06T15:19:31.102Z,7.52
2019-03-06T15:24:41.693Z,8.99
2019-03-06T15:29:48.686Z,5.98
2019-03-06T15:34:57.703Z,8.63
2019-03-06T15:40:06.685Z,7.13
2019-03-06T15:45:15.694Z,6.90
2019-03-06T15:50:24.688Z,4.90
2019-03-06T15:55:33.693Z,7.98
2019-03-06T16:00:46.410Z,4.73
2019-03-06T16:05:51.170Z,7.63
2019-03-06T16:11:00.142Z,5.67
2019-03-06T16:16:09.156Z,6.71
2019-03-06T16:21:18.106Z,6.09
2019-03-06T16:26:27.106Z,8.73
2019-03-06T16:31:36.086Z,6.33
2019-03-06T16:36:45.110Z,5.66
2019-03-06T16:41:54.042Z,7.22
2019-03-06T16:47:06.649Z,7.03
2019-03-06T16:52:11.745Z,6.56
2019-03-06T16:57:20.754Z,7.58
2019-03-06T17:02:29.707Z,9.02
2019-03-06T17:07:38.726Z,6.27
2019-03-06T17:12:47.656Z,4.17
2019-03-06T17:17:56.626Z,5.81
2019-03-06T17:23:05.546Z,5.41
2019-03-06T17:28:14.498Z,6.13
2019-03-06T17:33:23.543Z,4.41
2019-03-06T17:38:32.494Z,5.79
2019-03-06T17:43:40.026Z,4.13
2019-03-06T17:48:48.979Z,7.39
2019-03-06T17:53:57.982Z,7.18
2019-03-06T17:59:06.927Z,6.19
2019-03-06T18:04:15.982Z,6.08
2019-03-06T18:09:24.913Z,6.80
2019-03-06T18:14:33.986Z,5.94
2019-03-06T18:19:42.914Z,8.35
2019-03-06T18:24:51.986Z,5.98
2019-03-06T18:30:00.923Z,7.50
2019-03-06T18:35:09.928Z,6.35
2019-03-06T18:40:18.970Z,7.28
2019-03-06T18:45:27.994Z,6.34
2019-03-06T18:50:36.991Z,5.74
2019-03-06T18:55:46.038Z,7.14
2019-03-06T19:01:01.765Z,8.10
2019-03-06T19:06:00.719Z,9.30
2019-03-06T19:11:16.766Z,7.00
2019-03-06T19:16:18.203Z,10.58
2019-03-06T19:21:27.210Z,8.06
2019-03-06T19:26:36.215Z,9.67
2019-03-06T19:31:45.202Z,8.24
2019-03-06T19:36:54.394Z,11.12
2019-03-06T19:42:03.394Z,10.67
2019-03-06T19:47:12.342Z,6.30
2019-03-06T19:52:21.342Z,10.13
2019-03-06T19:57:30.286Z,6.87
2019-03-06T20:02:39.280Z,7.82
2019-03-06T20:07:48.310Z,11.08
2019-03-06T20:12:57.294Z,7.74
2019-03-06T20:18:06.343Z,10.29
2019-03-06T20:23:15.266Z,8.22
2019-03-06T20:28:24.343Z,13.42
2019-03-06T20:33:34.157Z,7.64
2019-03-06T20:38:41.842Z,13.25
2019-03-06T20:43:50.783Z,8.00
2019-03-06T20:48:59.758Z,9.12
2019-03-06T20:54:08.711Z,7.41
2019-03-06T20:59:17.646Z,8.88
2019-03-06T21:04:26.582Z,8.78
2019-03-06T21:09:35.560Z,9.12
2019-03-06T21:14:44.506Z,15.34
2019-03-06T21:19:53.437Z,13.93
2019-03-06T21:25:02.390Z,7.95
2019-03-06T21:30:11.354Z,12.53
2019-03-06T21:35:20.319Z,10.47
2019-03-06T21:40:29.338Z,8.43
2019-03-06T21:45:38.328Z,13.05
2019-03-06T21:50:47.379Z,7.66
2019-03-06T21:55:56.328Z,8.35
2019-03-06T22:01:05.351Z,8.05
2019-03-06T22:06:14.362Z,7.63
2019-03-06T22:11:23.418Z,13.23
2019-03-06T22:16:32.362Z,9.13
2019-03-06T22:21:41.625Z,13.69
2019-03-06T22:26:50.639Z,6.81
2019-03-06T22:31:59.690Z,8.51
2019-03-06T22:37:08.667Z,12.10
2019-03-06T22:42:17.691Z,8.23
2019-03-06T22:47:26.685Z,11.25
2019-03-06T22:52:35.694Z,7.53
2019-03-06T22:57:44.689Z,9.25
2019-03-06T23:02:53.746Z,8.91
2019-03-06T23:08:02.731Z,8.93
2019-03-06T23:13:11.743Z,7.96
2019-03-06T23:18:20.718Z,9.07
2019-03-06T23:23:29.730Z,9.76
2019-03-06T23:28:38.702Z,6.67
2019-03-06T23:33:47.754Z,12.00
2019-03-06T23:38:56.753Z,11.47
2019-03-06T23:44:05.974Z,7.40
2019-03-06T23:49:14.966Z,6.84
2019-03-06T23:54:24.016Z,7.70
2019-03-06T23:59:32.996Z,7.36
